Time;durP1;ratioP1;P1;durP2;ratioP2;P2;SDS_P1;SDS_P2;PMS_P1;PMS_P2;Temp;Humidity;BMP_temperature;BMP_pressure;BME280_temperature;BME280_humidity;BME280_pressure;Samples;Min_cycle;Max_cycle;Signal;HPM_P1;HPM_P2
2022/03/14 00:01:22;;;;;;;21.77;16.40;;;10.00;99.90;;;;;;4973589;28;20296;-62
2022/03/14 00:03:50;;;;;;;29.03;17.93;;;9.90;99.90;;;;;;4988911;28;20230;-63
2022/03/14 00:06:17;;;;;;;21.30;15.97;;;9.90;99.90;;;;;;4989482;28;20731;-63
2022/03/14 00:08:45;;;;;;;21.57;15.00;;;9.90;99.90;;;;;;4999557;28;20206;-62
2022/03/14 00:11:14;;;;;;;19.27;15.10;;;9.70;99.90;;;;;;4990107;28;20233;-64
2022/03/14 00:13:46;;;;;;;21.17;16.17;;;9.60;1.00;;;;;;4985053;28;20221;-63
2022/03/14 00:16:28;;;;;;;21.73;16.27;;;9.70;1.00;;;;;;4984066;28;20201;-63
2022/03/14 00:18:57;;;;;;;19.33;15.27;;;9.70;1.00;;;;;;4977999;28;20312;-64
2022/03/14 00:21:26;;;;;;;19.97;15.63;;;9.80;1.00;;;;;;4989806;28;20239;-65
2022/03/14 00:23:54;;;;;;;20.17;15.70;;;9.80;1.00;;;;;;4989250;28;20248;-63
2022/03/14 00:26:25;;;;;;;23.60;16.33;;;9.80;1.00;;;;;;4998626;28;20316;-62
2022/03/14 00:28:53;;;;;;;20.90;15.77;;;9.70;1.00;;;;;;4983231;28;20189;-62
2022/03/14 00:31:25;;;;;;;22.17;16.60;;;9.70;1.00;;;;;;4990115;28;20213;-63
2022/03/14 00:33:55;;;;;;;22.13;16.13;;;9.60;1.00;;;;;;4984269;28;20649;-63
2022/03/14 00:36:25;;;;;;;22.37;16.23;;;9.60;1.00;;;;;;4988469;28;20296;-62
2022/03/14 00:38:53;;;;;;;20.30;15.83;;;9.60;1.00;;;;;;4999356;28;20194;-62
2022/03/14 00:41:21;;;;;;;24.83;16.17;;;9.60;1.00;;;;;;4999058;28;20316;-62
2022/03/14 00:43:51;;;;;;;21.13;15.53;;;9.60;1.00;;;;;;4998667;28;20209;-62
2022/03/14 00:46:19;;;;;;;20.57;15.13;;;9.60;1.00;;;;;;5000048;28;20198;-64
2022/03/14 00:48:46;;;;;;;23.30;15.60;;;9.70;1.00;;;;;;4994864;28;20225;-63
2022/03/14 00:51:14;;;;;;;21.37;15.80;;;9.60;1.00;;;;;;4988873;28;20274;-62
2022/03/14 00:53:44;;;;;;;20.97;16.03;;;9.60;1.00;;;;;;4997017;28;20202;-62
2022/03/14 00:56:13;;;;;;;19.17;15.70;;;9.60;1.00;;;;;;4997243;28;20229;-63
2022/03/14 00:58:43;;;;;;;21.03;15.70;;;9.70;1.00;;;;;;4988745;28;20216;-63
2022/03/14 01:01:11;;;;;;;22.73;16.50;;;9.70;1.00;;;;;;4996548;28;20187;-63
2022/03/14 01:03:40;;;;;;;21.93;16.50;;;9.70;1.00;;;;;;4996866;28;20269;-63
2022/03/14 01:06:07;;;;;;;21.50;15.97;;;9.70;1.00;;;;;;4998063;28;20202;-62
2022/03/14 01:08:37;;;;;;;22.03;16.80;;;9.80;1.00;;;;;;4998645;28;20221;-63
2022/03/14 01:11:04;;;;;;;25.83;19.27;;;9.70;1.00;;;;;;4965836;28;20212;-62
2022/03/14 01:13:37;;;;;;;22.47;16.90;;;9.70;1.00;;;;;;4980446;28;20209;-63
2022/03/14 01:16:06;;;;;;;24.90;17.30;;;9.60;1.00;;;;;;4982818;28;20226;-62
2022/03/14 01:18:35;;;;;;;21.43;15.83;;;9.60;1.00;;;;;;4996472;28;20279;-64
2022/03/14 01:21:02;;;;;;;22.97;15.77;;;9.60;1.00;;;;;;4984764;28;20275;-62
2022/03/14 01:23:32;;;;;;;22.27;16.03;;;9.50;1.00;;;;;;4983193;28;20228;-62
2022/03/14 01:25:58;;;;;;;21.70;14.73;;;9.60;1.00;;;;;;4999729;28;20201;-62
2022/03/14 01:28:25;;;;;;;19.37;14.17;;;9.50;1.00;;;;;;4999585;28;20245;-62
2022/03/14 01:30:52;;;;;;;18.90;14.23;;;9.40;1.00;;;;;;4982115;28;20229;-63
2022/03/14 01:33:21;;;;;;;20.10;14.10;;;9.40;1.00;;;;;;4983049;28;20669;-63
2022/03/14 01:35:51;;;;;;;20.57;15.00;;;9.30;1.00;;;;;;4998907;28;20185;-62
2022/03/14 01:38:17;;;;;;;23.47;14.43;;;9.30;1.00;;;;;;4982512;28;20214;-63
2022/03/14 01:40:44;;;;;;;20.10;14.30;;;9.20;1.00;;;;;;4982203;28;20288;-62
2022/03/14 01:43:12;;;;;;;18.93;13.97;;;9.20;1.00;;;;;;4982987;28;20210;-62
2022/03/14 01:45:39;;;;;;;19.67;14.80;;;9.10;1.00;;;;;;4987412;28;20200;-62
2022/03/14 01:48:06;;;;;;;24.03;15.27;;;9.00;1.00;;;;;;4986406;28;20269;-62
2022/03/14 01:50:36;;;;;;;18.07;14.07;;;9.00;1.00;;;;;;4984184;28;20252;-62
2022/03/14 01:53:06;;;;;;;19.30;14.57;;;9.00;1.00;;;;;;5001421;28;20599;-62
2022/03/14 01:55:34;;;;;;;20.00;15.20;;;8.90;1.00;;;;;;4983602;28;20258;-63
2022/03/14 01:58:04;;;;;;;18.67;14.90;;;8.90;1.00;;;;;;5001501;28;20205;-62
2022/03/14 02:00:33;;;;;;;19.73;15.17;;;8.80;1.00;;;;;;4985296;28;20190;-62
2022/03/14 02:03:03;;;;;;;19.10;14.77;;;8.90;1.00;;;;;;4998537;28;20224;-63
2022/03/14 02:05:33;;;;;;;25.97;15.83;;;8.90;1.00;;;;;;4984841;28;20268;-64
2022/03/14 02:07:59;;;;;;;19.73;15.80;;;8.90;1.00;;;;;;4972608;28;20270;-62
2022/03/14 02:10:26;;;;;;;23.90;16.27;;;8.80;1.00;;;;;;4990619;28;20212;-63
2022/03/14 02:12:53;;;;;;;20.47;15.57;;;8.80;1.00;;;;;;4999099;28;20220;-63
2022/03/14 02:15:23;;;;;;;21.03;15.97;;;8.80;1.00;;;;;;4986100;28;20276;-64
2022/03/14 02:17:52;;;;;;;20.67;15.97;;;8.70;1.00;;;;;;5000702;28;20346;-63
2022/03/14 02:20:22;;;;;;;21.63;15.63;;;8.90;1.00;;;;;;4997439;28;21231;-62
2022/03/14 02:22:51;;;;;;;23.03;15.77;;;9.00;1.00;;;;;;4975184;28;20222;-63
2022/03/14 02:25:18;;;;;;;22.40;15.23;;;9.10;1.00;;;;;;4983469;28;20201;-63
2022/03/14 02:27:50;;;;;;;20.57;15.43;;;9.10;1.00;;;;;;4988435;28;20776;-63
2022/03/14 02:30:18;;;;;;;21.57;15.37;;;9.20;1.00;;;;;;4999174;28;20197;-64
2022/03/14 02:32:48;;;;;;;22.10;16.03;;;9.10;1.00;;;;;;4989754;28;20241;-63
2022/03/14 02:35:15;;;;;;;20.40;14.40;;;9.20;1.00;;;;;;5001018;28;20236;-64
2022/03/14 02:37:44;;;;;;;21.47;16.23;;;9.20;1.00;;;;;;4984604;28;20190;-63
2022/03/14 02:40:14;;;;;;;23.13;15.60;;;9.20;1.00;;;;;;4999449;28;20182;-63
2022/03/14 02:42:41;;;;;;;19.50;15.30;;;9.20;1.00;;;;;;4982781;28;20278;-63
2022/03/14 02:45:09;;;;;;;20.50;15.07;;;9.20;1.00;;;;;;4989237;28;20684;-63
2022/03/14 02:47:37;;;;;;;20.90;15.20;;;9.20;1.00;;;;;;4982974;28;20208;-62
2022/03/14 02:50:04;;;;;;;20.23;15.37;;;9.30;1.00;;;;;;4982822;28;20226;-63
2022/03/14 02:52:31;;;;;;;21.57;15.90;;;9.10;1.00;;;;;;4984292;28;20194;-63
2022/03/14 02:55:03;;;;;;;20.63;15.63;;;9.20;1.00;;;;;;4983299;28;20198;-63
2022/03/14 02:57:31;;;;;;;22.90;15.47;;;9.20;1.00;;;;;;4987728;28;20210;-63
2022/03/14 02:59:58;;;;;;;20.97;16.10;;;9.10;1.00;;;;;;4984839;28;20245;-62
2022/03/14 03:02:28;;;;;;;19.73;15.80;;;9.10;1.00;;;;;;4998166;28;20233;-62
2022/03/14 03:04:58;;;;;;;23.77;15.97;;;9.20;1.00;;;;;;4983822;28;20261;-63
2022/03/14 03:07:27;;;;;;;22.63;16.63;;;9.20;1.00;;;;;;5000873;28;20222;-63
2022/03/14 03:09:54;;;;;;;20.47;15.43;;;9.10;1.00;;;;;;5000464;28;20640;-63
2022/03/14 03:12:30;;;;;;;21.63;16.30;;;9.10;1.00;;;;;;4989638;28;20206;-63
2022/03/14 03:14:58;;;;;;;23.63;16.00;;;9.10;1.00;;;;;;5000047;28;20936;-63
2022/03/14 03:17:26;;;;;;;23.17;17.43;;;9.10;1.00;;;;;;4989908;28;20209;-64
2022/03/14 03:19:53;;;;;;;22.50;17.07;;;9.20;1.00;;;;;;4984803;28;20239;-63
2022/03/14 03:22:25;;;;;;;21.70;16.73;;;9.30;1.00;;;;;;4998705;28;20257;-62
2022/03/14 03:24:51;;;;;;;19.87;15.73;;;9.30;1.00;;;;;;4987100;28;20309;-62
2022/03/14 03:27:19;;;;;;;20.17;15.67;;;9.30;1.00;;;;;;4975849;28;20316;-62
2022/03/14 03:29:46;;;;;;;22.23;16.03;;;9.30;1.00;;;;;;4980260;28;20248;-62
2022/03/14 03:32:13;;;;;;;20.90;15.63;;;9.40;1.00;;;;;;4966514;28;20202;-62
2022/03/14 03:34:40;;;;;;;19.47;15.37;;;9.40;1.00;;;;;;4986931;28;20285;-62
2022/03/14 03:37:07;;;;;;;20.93;15.37;;;9.40;1.00;;;;;;4997394;28;20226;-62
2022/03/14 03:39:38;;;;;;;20.03;14.73;;;9.40;1.00;;;;;;4997507;28;20197;-63
2022/03/14 03:42:05;;;;;;;20.67;15.00;;;9.40;1.00;;;;;;4987747;28;20245;-64
2022/03/14 03:44:32;;;;;;;20.53;15.57;;;9.30;1.00;;;;;;4984274;28;20206;-63
2022/03/14 03:47:05;;;;;;;22.77;15.07;;;9.30;1.00;;;;;;4980943;28;20198;-63
2022/03/14 03:49:35;;;;;;;19.80;16.27;;;9.20;1.00;;;;;;4987684;28;20202;-63
2022/03/14 03:52:02;;;;;;;21.87;15.77;;;9.10;1.00;;;;;;4984763;28;20186;-62
2022/03/14 03:54:29;;;;;;;22.33;15.30;;;8.90;1.00;;;;;;4970526;28;20224;-61
2022/03/14 03:56:56;;;;;;;22.57;16.50;;;8.70;48.80;;;;;;4998566;28;20241;-62
2022/03/14 03:59:28;;;;;;;24.63;17.17;;;8.50;1.00;;;;;;4983859;28;20236;-62
2022/03/14 04:01:57;;;;;;;22.97;17.43;;;8.30;1.00;;;;;;4994669;28;20229;-62
2022/03/14 04:04:26;;;;;;;25.70;18.50;;;8.00;1.00;;;;;;4980056;28;20260;-62
2022/03/14 04:06:56;;;;;;;30.37;20.60;;;7.70;99.90;;;;;;4987737;28;20201;-62
2022/03/14 04:09:26;;;;;;;27.73;19.27;;;7.50;1.00;;;;;;4991032;28;20198;-63
2022/03/14 04:11:58;;;;;;;28.53;19.10;;;7.30;99.90;;;;;;4986066;28;20201;-63
2022/03/14 04:14:31;;;;;;;31.97;19.77;;;7.30;1.00;;;;;;4998942;28;20213;-63
2022/03/14 04:17:01;;;;;;;27.97;19.57;;;7.30;1.00;;;;;;4981101;28;20233;-63
2022/03/14 04:19:29;;;;;;;33.03;22.53;;;7.20;1.00;;;;;;4981635;28;20240;-64
2022/03/14 04:21:56;;;;;;;32.70;21.57;;;7.20;1.00;;;;;;4987603;28;20210;-64
2022/03/14 04:24:26;;;;;;;34.87;23.37;;;7.20;1.00;;;;;;4998317;28;20327;-64
2022/03/14 04:26:57;;;;;;;36.73;23.07;;;7.20;99.90;;;;;;4996522;28;20229;-64
2022/03/14 04:29:28;;;;;;;36.80;24.67;;;7.20;1.00;;;;;;4968292;28;20203;-63
2022/03/14 04:31:55;;;;;;;39.10;25.17;;;7.20;1.00;;;;;;4995794;28;20905;-63
2022/03/14 04:34:25;;;;;;;37.83;24.67;;;7.10;1.00;;;;;;4988643;28;20316;-64
2022/03/14 04:36:51;;;;;;;45.97;28.57;;;7.10;63.00;;;;;;4997736;28;20613;-63
2022/03/14 04:39:19;;;;;;;41.13;27.07;;;7.10;1.00;;;;;;4970842;28;20225;-63
2022/03/14 04:41:48;;;;;;;0.50;0.50;;;7.10;99.90;;;;;;4996677;28;20242;-63
2022/03/14 04:44:19;;;;;;;37.80;25.07;;;7.10;99.90;;;;;;4996697;28;20221;-64
2022/03/14 04:46:46;;;;;;;0.50;0.50;;;7.10;99.90;;;;;;4978573;28;20202;-64
2022/03/14 04:49:17;;;;;;;0.50;0.50;;;7.10;99.90;;;;;;4985927;28;20237;-64
2022/03/14 04:51:50;;;;;;;0.47;0.47;;;7.10;99.90;;;;;;4986624;28;20189;-62
2022/03/14 04:54:19;;;;;;;0.50;0.50;;;7.10;99.90;;;;;;4981352;28;20286;-62
2022/03/14 04:56:46;;;;;;;0.40;0.40;;;7.10;99.90;;;;;;4980372;28;20202;-63
2022/03/14 04:59:14;;;;;;;0.50;0.50;;;7.10;99.90;;;;;;4981510;28;20195;-63
2022/03/14 05:01:41;;;;;;;0.50;0.50;;;7.10;99.90;;;;;;4985517;28;20260;-62
2022/03/14 05:04:08;;;;;;;0.40;0.40;;;7.20;99.90;;;;;;4984670;28;20218;-62
2022/03/14 05:06:35;;;;;;;0.40;0.40;;;7.20;99.90;;;;;;4996597;28;20637;-63
2022/03/14 05:09:03;;;;;;;0.50;0.50;;;7.20;99.90;;;;;;4986635;28;20202;-63
2022/03/14 05:11:30;;;;;;;0.40;0.40;;;7.20;99.90;;;;;;4970883;28;20216;-64
2022/03/14 05:14:04;;;;;;;0.40;0.40;;;7.30;99.90;;;;;;4981450;28;20202;-63
2022/03/14 05:16:31;;;;;;;0.50;0.50;;;7.30;99.90;;;;;;4988239;28;20240;-62
2022/03/14 05:18:58;;;;;;;0.40;0.40;;;7.30;99.90;;;;;;4980771;28;20267;-62
2022/03/14 05:21:27;;;;;;;0.40;0.40;;;7.20;99.90;;;;;;4972384;28;20747;-63
2022/03/14 05:23:54;;;;;;;0.30;0.30;;;7.30;99.90;;;;;;4984935;28;20213;-63
2022/03/14 05:26:23;;;;;;;0.40;0.40;;;7.30;99.90;;;;;;4989963;28;20198;-63
2022/03/14 05:28:51;;;;;;;0.40;0.40;;;7.30;99.90;;;;;;4999539;28;20228;-63
2022/03/14 05:31:23;;;;;;;0.63;0.63;;;7.30;99.90;;;;;;4983415;28;20312;-63
2022/03/14 05:33:51;;;;;;;0.30;0.30;;;7.30;99.90;;;;;;4999667;28;20264;-63
2022/03/14 05:36:20;;;;;;;0.40;0.40;;;7.50;99.90;;;;;;4991241;28;20566;-63
2022/03/14 05:38:47;;;;;;;0.50;0.50;;;7.50;99.90;;;;;;4985159;28;20209;-63
2022/03/14 05:41:18;;;;;;;0.40;0.40;;;7.50;99.90;;;;;;4989712;28;20233;-62
2022/03/14 05:43:47;;;;;;;0.50;0.50;;;7.50;99.90;;;;;;4987455;28;20363;-63
2022/03/14 05:46:15;;;;;;;0.50;0.50;;;7.60;99.90;;;;;;4987095;28;20573;-63
2022/03/14 05:48:44;;;;;;;0.50;0.50;;;7.80;99.90;;;;;;4998909;28;20222;-62
2022/03/14 05:51:11;;;;;;;0.30;0.30;;;7.80;99.90;;;;;;4989593;28;20201;-63
2022/03/14 05:53:38;;;;;;;0.40;0.40;;;7.80;99.90;;;;;;4999708;28;20233;-62
2022/03/14 05:56:07;;;;;;;0.40;0.40;;;7.70;99.90;;;;;;5000763;28;20547;-62
2022/03/14 05:58:37;;;;;;;0.40;0.40;;;7.60;99.90;;;;;;4998130;28;20193;-62
2022/03/14 06:01:04;;;;;;;0.40;0.40;;;7.70;99.90;;;;;;4998631;28;20277;-62
2022/03/14 06:03:31;;;;;;;0.40;0.40;;;7.70;99.90;;;;;;4986016;28;20202;-62
2022/03/14 06:05:58;;;;;;;0.40;0.40;;;7.70;99.90;;;;;;4983152;28;20658;-62
2022/03/14 06:08:25;;;;;;;0.50;0.50;;;7.80;99.90;;;;;;4981564;28;20233;-61
2022/03/14 06:10:52;;;;;;;0.40;0.40;;;7.70;99.90;;;;;;4999473;28;20233;-62
2022/03/14 06:13:20;;;;;;;0.47;0.47;;;7.70;99.90;;;;;;4996089;28;20206;-62
2022/03/14 06:15:49;;;;;;;0.40;0.40;;;7.70;99.90;;;;;;4983869;28;21524;-63
2022/03/14 06:18:16;;;;;;;0.40;0.40;;;7.70;99.90;;;;;;4996775;28;20206;-63
2022/03/14 06:20:43;;;;;;;0.40;0.40;;;7.70;99.90;;;;;;4982400;28;20707;-63
2022/03/14 06:23:10;;;;;;;0.50;0.50;;;7.60;99.90;;;;;;4982958;28;20226;-62
2022/03/14 06:25:36;;;;;;;0.43;0.43;;;7.80;99.90;;;;;;4989320;28;20213;-62
2022/03/14 06:28:04;;;;;;;0.30;0.30;;;7.70;99.90;;;;;;4998927;28;20220;-63
2022/03/14 06:30:30;;;;;;;0.40;0.40;;;7.70;99.90;;;;;;4996692;28;20194;-63
2022/03/14 06:32:57;;;;;;;0.40;0.40;;;7.70;99.90;;;;;;4988567;28;20194;-62
2022/03/14 06:35:25;;;;;;;0.50;0.50;;;7.80;99.90;;;;;;4981567;28;20210;-62
2022/03/14 06:37:54;;;;;;;0.40;0.40;;;7.80;99.90;;;;;;4998352;28;20559;-62
2022/03/14 06:40:21;;;;;;;0.50;0.50;;;7.80;99.90;;;;;;4999612;28;20341;-63
2022/03/14 06:42:52;;;;;;;0.33;0.33;;;7.80;99.90;;;;;;4981916;28;20268;-62
2022/03/14 06:45:22;;;;;;;0.40;0.40;;;7.80;99.90;;;;;;4996909;28;20501;-64
2022/03/14 06:47:53;;;;;;;0.43;0.43;;;7.70;99.90;;;;;;4983300;28;20309;-62
2022/03/14 06:50:21;;;;;;;0.40;0.40;;;7.80;99.90;;;;;;4969241;28;20292;-63
2022/03/14 06:52:49;;;;;;;0.40;0.40;;;7.80;99.90;;;;;;4988033;28;20673;-63
2022/03/14 06:55:16;;;;;;;0.40;0.40;;;7.80;99.90;;;;;;4985255;28;20280;-63
2022/03/14 06:57:43;;;;;;;0.40;0.40;;;7.70;99.90;;;;;;4985700;28;20226;-64
2022/03/14 07:00:19;;;;;;;0.40;0.40;;;7.70;99.90;;;;;;4996171;28;20207;-64
2022/03/14 07:02:46;;;;;;;0.50;0.50;;;7.70;99.90;;;;;;4981710;28;20299;-62
2022/03/14 07:05:17;;;;;;;0.50;0.50;;;7.70;99.90;;;;;;4983276;28;20217;-62
2022/03/14 07:07:45;;;;;;;0.50;0.50;;;7.80;99.90;;;;;;4988682;28;20194;-63
2022/03/14 07:10:13;;;;;;;0.50;0.50;;;7.70;99.90;;;;;;4985079;28;20201;-62
2022/03/14 07:12:49;;;;;;;0.40;0.40;;;7.70;99.90;;;;;;4998064;28;20221;-62
2022/03/14 07:15:21;;;;;;;0.30;0.30;;;7.70;99.90;;;;;;4998165;28;20217;-62
2022/03/14 07:17:54;;;;;;;0.40;0.40;;;7.70;99.90;;;;;;4982976;28;20193;-63
2022/03/14 07:20:23;;;;;;;0.40;0.40;;;7.80;99.90;;;;;;4982375;28;20758;-62
2022/03/14 07:22:54;;;;;;;0.47;0.47;;;7.80;99.90;;;;;;4987151;28;20226;-62
2022/03/14 07:25:26;;;;;;;0.40;0.40;;;7.90;99.90;;;;;;4997017;28;20222;-62
2022/03/14 07:28:00;;;;;;;0.43;0.43;;;8.00;99.90;;;;;;4982235;28;20684;-62
2022/03/14 07:30:27;;;;;;;0.50;0.50;;;8.00;99.90;;;;;;4987927;28;20193;-63
2022/03/14 07:32:54;;;;;;;0.40;0.40;;;8.00;99.90;;;;;;4988693;28;20649;-62
2022/03/14 07:35:26;;;;;;;0.40;0.40;;;7.90;99.90;;;;;;4984851;28;20198;-64
2022/03/14 07:37:58;;;;;;;0.40;0.40;;;7.90;99.90;;;;;;4981543;28;20774;-61
2022/03/14 07:40:26;;;;;;;0.40;0.40;;;7.90;99.90;;;;;;4996683;28;20220;-63
2022/03/14 07:42:56;;;;;;;0.40;0.40;;;8.00;99.90;;;;;;4996959;28;20673;-62
2022/03/14 07:45:25;;;;;;;0.50;0.50;;;7.90;99.90;;;;;;4986984;28;20616;-63
2022/03/14 07:47:54;;;;;;;0.40;0.40;;;8.00;99.90;;;;;;4985982;28;20230;-62
2022/03/14 07:50:23;;;;;;;0.40;0.40;;;8.00;99.90;;;;;;4981695;28;20240;-62
2022/03/14 07:52:53;;;;;;;0.40;0.40;;;8.00;99.90;;;;;;4981808;28;20213;-62
2022/03/14 07:55:22;;;;;;;0.30;0.30;;;8.10;99.90;;;;;;4966862;28;20210;-62
2022/03/14 07:57:52;;;;;;;0.43;0.43;;;8.20;99.90;;;;;;4998023;28;20664;-63
2022/03/14 08:00:20;;;;;;;0.40;0.40;;;8.20;99.90;;;;;;4980719;28;20244;-63
2022/03/14 08:02:50;;;;;;;0.30;0.30;;;8.20;99.90;;;;;;4969906;28;20197;-63
2022/03/14 08:05:23;;;;;;;0.50;0.50;;;8.10;99.90;;;;;;4995993;28;20252;-63
2022/03/14 08:07:52;;;;;;;0.40;0.40;;;8.20;99.90;;;;;;4985158;28;20199;-63
2022/03/14 08:10:19;;;;;;;0.30;0.30;;;8.30;99.90;;;;;;4982300;28;20620;-62
2022/03/14 08:12:56;;;;;;;0.40;0.40;;;8.30;99.90;;;;;;4993750;28;20205;-62
2022/03/14 08:15:31;;;;;;;0.40;0.40;;;8.40;99.90;;;;;;4997307;28;20267;-63
2022/03/14 08:18:01;;;;;;;0.40;0.40;;;8.40;99.90;;;;;;4982266;28;20217;-63
2022/03/14 08:20:28;;;;;;;0.40;0.40;;;8.50;99.90;;;;;;4983420;28;20872;-63
2022/03/14 08:22:59;;;;;;;0.40;0.40;;;8.40;99.90;;;;;;4996378;28;20701;-62
2022/03/14 08:25:28;;;;;;;0.50;0.50;;;8.50;99.90;;;;;;4981682;28;20262;-62
2022/03/14 08:27:55;;;;;;;0.40;0.40;;;8.40;99.90;;;;;;4981992;28;20198;-63
2022/03/14 08:30:25;;;;;;;0.40;0.40;;;8.60;99.90;;;;;;4997441;28;20216;-63
2022/03/14 08:32:55;;;;;;;0.30;0.30;;;8.60;99.90;;;;;;4987059;28;20201;-62
2022/03/14 08:35:27;;;;;;;0.50;0.50;;;8.70;99.90;;;;;;4981208;28;20202;-63
2022/03/14 08:37:55;;;;;;;0.50;0.50;;;8.80;99.90;;;;;;4996112;28;20220;-62
2022/03/14 08:40:25;;;;;;;0.50;0.50;;;8.80;99.90;;;;;;4994060;28;20208;-63
2022/03/14 08:42:54;;;;;;;0.40;0.40;;;8.80;99.90;;;;;;4996862;28;20201;-62
2022/03/14 08:45:23;;;;;;;0.40;0.40;;;8.70;99.90;;;;;;4966387;28;20327;-62
2022/03/14 08:47:51;;;;;;;0.40;0.40;;;8.70;99.90;;;;;;4994641;28;20277;-62
2022/03/14 08:50:20;;;;;;;0.40;0.40;;;8.80;99.90;;;;;;4981214;28;20578;-62
2022/03/14 08:52:47;;;;;;;0.30;0.30;;;8.80;99.90;;;;;;4995377;28;20562;-62
2022/03/14 08:55:15;;;;;;;0.50;0.50;;;8.90;99.90;;;;;;4987535;28;20204;-62
2022/03/14 08:57:42;;;;;;;0.40;0.40;;;8.90;99.90;;;;;;4995958;28;20260;-63
2022/03/14 09:00:11;;;;;;;0.30;0.30;;;9.00;99.90;;;;;;4995950;28;20364;-62
2022/03/14 09:02:41;;;;;;;0.40;0.40;;;9.10;99.90;;;;;;4993629;28;20277;-62
2022/03/14 09:05:08;;;;;;;0.40;0.40;;;9.20;99.90;;;;;;4976026;28;20245;-62
2022/03/14 09:07:35;;;;;;;0.40;0.40;;;9.30;99.90;;;;;;4981338;28;20256;-62
2022/03/14 09:10:08;;;;;;;0.40;0.40;;;9.60;99.90;;;;;;4995675;28;20266;-64
2022/03/14 09:12:38;;;;;;;0.30;0.30;;;9.70;99.90;;;;;;4980086;28;20263;-62
2022/03/14 09:15:12;;;;;;;0.40;0.40;;;9.60;99.90;;;;;;4995339;28;20201;-62
2022/03/14 09:17:56;;;;;;;0.40;0.40;;;9.50;99.90;;;;;;4980859;28;20276;-62
2022/03/14 09:20:24;;;;;;;0.50;0.50;;;9.60;99.90;;;;;;4996022;28;20206;-62
2022/03/14 09:22:54;;;;;;;0.30;0.30;;;9.60;99.90;;;;;;4991063;28;20281;-62
2022/03/14 09:25:24;;;;;;;0.40;0.40;;;9.70;99.90;;;;;;4994605;28;20728;-62
2022/03/14 09:27:54;;;;;;;0.50;0.50;;;10.00;99.90;;;;;;4976651;28;20202;-62
2022/03/14 09:30:22;;;;;;;0.40;0.40;;;10.00;99.90;;;;;;4978219;28;20317;-62
2022/03/14 09:32:49;;;;;;;0.40;0.40;;;10.00;99.90;;;;;;4993505;28;20199;-62
2022/03/14 09:35:17;;;;;;;0.40;0.40;;;10.20;99.90;;;;;;4981868;28;20194;-62
2022/03/14 09:37:45;;;;;;;0.43;0.43;;;10.10;99.90;;;;;;4996373;28;20748;-63
2022/03/14 09:40:17;;;;;;;0.40;0.40;;;10.40;99.90;;;;;;4979730;28;20212;-63
2022/03/14 09:42:46;;;;;;;0.40;0.40;;;10.40;99.90;;;;;;4979182;28;20244;-64
2022/03/14 09:45:14;;;;;;;0.40;0.40;;;10.60;99.90;;;;;;4981400;28;20214;-64
2022/03/14 09:47:44;;;;;;;0.40;0.40;;;10.90;99.90;;;;;;4993425;28;20202;-63
2022/03/14 09:50:20;;;;;;;0.40;0.40;;;10.90;99.90;;;;;;4979387;28;20197;-64
2022/03/14 09:52:48;;;;;;;0.40;0.40;;;11.00;99.90;;;;;;4996753;28;20673;-64
2022/03/14 09:55:16;;;;;;;0.40;0.40;;;11.00;99.90;;;;;;4995782;28;20233;-63
2022/03/14 09:57:42;;;;;;;0.30;0.30;;;11.20;99.90;;;;;;4980447;28;20206;-64
2022/03/14 10:00:15;;;;;;;0.40;0.40;;;11.90;99.90;;;;;;4978829;28;20680;-63
2022/03/14 10:02:44;;;;;;;0.40;0.40;;;12.60;99.90;;;;;;4986148;28;20835;-63
2022/03/14 10:05:18;;;;;;;0.40;0.40;;;12.60;99.90;;;;;;4987455;28;20569;-63
2022/03/14 10:07:45;;;;;;;0.50;0.50;;;12.90;99.90;;;;;;4995266;28;20197;-63
2022/03/14 10:10:14;;;;;;;0.30;0.30;;;12.90;99.90;;;;;;4981879;28;20186;-63
2022/03/14 10:12:44;;;;;;;0.40;0.40;;;12.90;99.90;;;;;;4983312;28;20194;-63
2022/03/14 10:15:15;;;;;;;0.40;0.40;;;12.70;99.90;;;;;;4997508;28;20194;-62
2022/03/14 10:17:46;;;;;;;0.40;0.40;;;11.90;99.90;;;;;;4985811;28;20225;-63
2022/03/14 10:20:16;;;;;;;0.40;0.40;;;11.60;99.90;;;;;;5004333;28;20276;-63
2022/03/14 10:22:44;;;;;;;0.40;0.40;;;11.30;99.90;;;;;;4987098;28;20284;-63
2022/03/14 10:25:13;;;;;;;0.47;0.47;;;11.30;99.90;;;;;;5000224;28;20704;-62
2022/03/14 10:27:46;;;;;;;0.50;0.50;;;11.30;99.90;;;;;;4988966;28;20206;-63
2022/03/14 10:30:25;;;;;;;0.40;0.40;;;11.20;99.90;;;;;;4982637;28;20182;-63
2022/03/14 10:33:08;;;;;;;0.40;0.40;;;11.10;99.90;;;;;;4986355;28;20193;-63
2022/03/14 10:35:44;;;;;;;0.40;0.40;;;11.30;99.90;;;;;;4984817;28;20189;-63
2022/03/14 10:38:13;;;;;;;0.40;0.40;;;11.30;99.90;;;;;;4998821;28;20241;-63
2022/03/14 10:40:44;;;;;;;0.40;0.40;;;11.30;99.90;;;;;;4983268;28;20641;-64
2022/03/14 10:43:27;;;;;;;0.40;0.40;;;11.30;99.90;;;;;;4996297;28;20210;-63
2022/03/14 10:45:59;;;;;;;0.40;0.40;;;11.10;99.90;;;;;;4984608;28;20739;-63
2022/03/14 10:48:38;;;;;;;0.40;0.40;;;11.00;99.90;;;;;;4984378;28;20202;-63
2022/03/14 10:51:13;;;;;;;0.50;0.50;;;10.90;99.90;;;;;;4985146;28;20194;-66
2022/03/14 10:53:45;;;;;;;0.50;0.50;;;10.80;99.90;;;;;;4998261;28;20206;-62
2022/03/14 10:56:16;;;;;;;0.47;0.47;;;10.80;99.90;;;;;;4984956;28;20225;-63
2022/03/14 10:58:43;;;;;;;0.30;0.30;;;10.70;99.90;;;;;;4987844;28;20380;-63
2022/03/14 11:01:11;;;;;;;0.50;0.50;;;10.70;99.90;;;;;;4997882;28;20234;-63
2022/03/14 11:03:42;;;;;;;0.30;0.30;;;10.80;99.90;;;;;;4997953;28;20653;-63
2022/03/14 11:06:13;;;;;;;1.93;1.83;;;10.80;99.90;;;;;;4983059;28;20206;-63
2022/03/14 11:08:47;;;;;;;0.40;0.40;;;10.90;99.90;;;;;;4999438;28;20203;-63
2022/03/14 11:11:19;;;;;;;0.30;0.30;;;10.90;99.90;;;;;;4982198;28;20207;-63
2022/03/14 11:13:47;;;;;;;0.47;0.47;;;11.10;99.90;;;;;;4980260;28;20281;-63
2022/03/14 11:16:20;;;;;;;0.30;0.30;;;11.20;99.90;;;;;;4985052;28;20245;-63
2022/03/14 11:18:49;;;;;;;0.50;0.50;;;11.40;99.90;;;;;;4996623;28;20205;-63
2022/03/14 11:21:18;;;;;;;0.40;0.40;;;11.30;99.90;;;;;;4979235;28;20635;-63
2022/03/14 11:23:51;;;;;;;0.40;0.40;;;11.70;99.90;;;;;;4996947;28;20704;-63
2022/03/14 11:26:21;;;;;;;0.20;0.20;;;11.70;99.90;;;;;;4987544;28;20241;-62
2022/03/14 11:28:54;;;;;;;0.40;0.40;;;11.70;99.90;;;;;;4996154;28;20206;-63
2022/03/14 11:31:24;;;;;;;0.40;0.40;;;11.50;99.90;;;;;;4986171;28;20225;-62
2022/03/14 11:33:51;;;;;;;0.40;0.40;;;11.30;99.90;;;;;;4983277;28;20225;-62
2022/03/14 11:36:22;;;;;;;0.30;0.30;;;11.10;99.90;;;;;;4987123;28;20214;-62
2022/03/14 11:38:49;;;;;;;0.30;0.30;;;10.90;99.90;;;;;;4997002;28;20206;-62
2022/03/14 11:41:18;;;;;;;0.40;0.40;;;10.80;99.90;;;;;;4997462;28;20229;-63
2022/03/14 11:43:46;;;;;;;0.40;0.40;;;10.60;99.90;;;;;;4981288;28;20198;-63
2022/03/14 11:46:35;;;;;;;0.40;0.40;;;10.60;99.90;;;;;;4995596;28;20210;-62
2022/03/14 11:49:13;;;;;;;0.40;0.40;;;10.60;99.90;;;;;;4997045;28;20190;-62
2022/03/14 11:51:41;;;;;;;0.40;0.40;;;10.60;99.90;;;;;;4996999;28;20208;-61
2022/03/14 11:54:12;;;;;;;0.30;0.30;;;10.60;99.90;;;;;;4999120;28;20382;-65
2022/03/14 11:56:56;;;;;;;0.30;0.30;;;10.50;99.90;;;;;;4996465;28;20197;-64
2022/03/14 11:59:31;;;;;;;0.40;0.40;;;10.70;99.90;;;;;;4980169;28;20222;-61
2022/03/14 12:02:03;;;;;;;0.40;0.40;;;10.70;99.90;;;;;;4979922;28;20205;-64
2022/03/14 12:04:36;;;;;;;0.97;0.97;;;10.70;99.90;;;;;;4997132;28;20285;-63
2022/03/14 12:07:08;;;;;;;0.40;0.40;;;10.70;99.90;;;;;;4981087;28;20657;-63
2022/03/14 12:09:35;;;;;;;0.50;0.50;;;10.80;99.90;;;;;;4982507;28;20311;-63
2022/03/14 12:12:12;;;;;;;0.40;0.40;;;10.60;99.90;;;;;;4970483;28;20645;-63
2022/03/14 12:14:47;;;;;;;0.40;0.40;;;10.60;99.90;;;;;;4993950;28;20202;-63
2022/03/14 12:17:14;;;;;;;0.40;0.40;;;10.80;99.90;;;;;;4979151;28;20319;-64
2022/03/14 12:20:02;;;;;;;0.40;0.40;;;10.90;99.90;;;;;;4984140;28;20206;-63
2022/03/14 12:22:43;;;;;;;0.50;0.50;;;11.10;99.90;;;;;;4995622;28;20223;-62
2022/03/14 12:25:34;;;;;;;0.40;0.40;;;11.20;99.90;;;;;;5013939;28;20676;-63
2022/03/14 12:28:23;;;;;;;0.40;0.40;;;11.30;99.90;;;;;;4981642;28;20237;-62
2022/03/14 12:30:55;;;;;;;0.40;0.40;;;11.40;99.90;;;;;;4997474;28;20795;-62
2022/03/14 12:33:35;;;;;;;0.40;0.40;;;11.60;99.90;;;;;;4981944;28;20217;-62
2022/03/14 12:36:23;;;;;;;0.40;0.40;;;11.80;99.90;;;;;;4980101;28;20205;-62
2022/03/14 12:39:21;;;;;;;0.40;0.40;;;12.20;99.90;;;;;;4986059;28;20246;-63
2022/03/14 12:41:48;;;;;;;0.40;0.40;;;13.20;1.00;;;;;;4995190;28;20700;-62
2022/03/14 12:44:19;;;;;;;0.30;0.30;;;13.40;99.90;;;;;;4986335;28;20221;-64
2022/03/14 12:46:48;;;;;;;0.40;0.40;;;13.20;1.00;;;;;;4995755;28;20317;-62
2022/03/14 12:49:49;;;;;;;0.40;0.40;;;13.40;1.00;;;;;;4982073;28;20198;-62
2022/03/14 12:52:18;;;;;;;0.40;0.40;;;14.20;1.00;;;;;;4982236;28;20185;-63
2022/03/14 12:54:48;;;;;;;0.40;0.40;;;14.90;99.90;;;;;;4998306;28;20202;-63
2022/03/14 12:57:22;;;;;;;0.33;0.33;;;15.30;1.00;;;;;;4997854;28;20198;-63
2022/03/14 12:59:59;;;;;;;0.33;0.33;;;15.00;1.00;;;;;;4981573;28;20198;-62
2022/03/14 13:02:29;;;;;;;0.40;0.40;;;14.70;99.90;;;;;;4996801;28;20730;-63
2022/03/14 13:05:01;;;;;;;0.30;0.30;;;14.00;1.00;;;;;;4996996;28;20308;-63